createdAt,value
2022-09-21T00:02:21.185Z,1.67
2022-09-21T00:07:26.596Z,1.92
2022-09-21T00:12:31.695Z,1.80
2022-09-21T00:17:35.578Z,2.10
2022-09-21T00:22:41.859Z,1.70
2022-09-21T00:32:51.714Z,1.93
2022-09-21T00:37:56.898Z,1.73
2022-09-21T00:43:17.262Z,2.22
2022-09-21T00:48:21.052Z,1.70
2022-09-21T00:53:27.749Z,1.83
2022-09-21T00:58:34.237Z,1.75
2022-09-21T01:03:38.052Z,1.90
2022-09-21T01:08:43.690Z,1.90
2022-09-21T01:13:54.333Z,2.17
2022-09-21T01:19:02.227Z,2.42
2022-09-21T01:24:49.710Z,1.80
2022-09-21T01:29:57.035Z,2.25
2022-09-21T01:35:03.880Z,1.90
2022-09-21T01:40:11.548Z,2.00
2022-09-21T01:45:18.134Z,2.30
2022-09-21T01:50:22.172Z,2.40
2022-09-21T01:55:29.825Z,3.22
2022-09-21T02:00:36.573Z,3.10
2022-09-21T02:05:40.820Z,2.85
2022-09-21T02:10:47.279Z,2.90
2022-09-21T02:16:04.751Z,2.70
2022-09-21T02:21:14.992Z,2.63
2022-09-21T02:26:24.334Z,3.13
2022-09-21T02:31:34.268Z,2.83
2022-09-21T02:36:43.499Z,3.30
2022-09-21T02:41:55.065Z,2.85
2022-09-21T02:47:03.111Z,2.53
2022-09-21T02:52:10.839Z,2.67
2022-09-21T02:57:15.539Z,3.80
2022-09-21T03:02:20.743Z,3.40
2022-09-21T03:07:24.519Z,3.33
2022-09-21T03:12:28.352Z,4.18
2022-09-21T03:17:33.578Z,3.65
2022-09-21T03:22:37.349Z,3.60
2022-09-21T03:27:41.796Z,3.00
2022-09-21T03:32:46.959Z,3.50
2022-09-21T03:37:51.335Z,3.20
2022-09-21T03:42:55.843Z,3.10
2022-09-21T03:48:01.686Z,3.50
2022-09-21T03:53:06.103Z,3.65
2022-09-21T03:58:10.443Z,4.43
2022-09-21T04:03:15.639Z,4.15
2022-09-21T04:08:19.419Z,4.07
2022-09-21T04:13:24.644Z,3.50
2022-09-21T04:18:29.855Z,3.95
2022-09-21T04:23:33.911Z,4.57
2022-09-21T04:28:37.707Z,3.95
2022-09-21T04:33:43.001Z,3.70
2022-09-21T04:38:46.863Z,5.93
2022-09-21T04:43:50.918Z,12.88
2022-09-21T04:48:56.252Z,9.93
2022-09-21T04:54:00.095Z,19.80
2022-09-21T04:59:04.215Z,9.35
2022-09-21T05:04:09.383Z,4.85
2022-09-21T05:09:30.528Z,4.30
2022-09-21T05:14:34.307Z,5.60
2022-09-21T05:19:39.525Z,4.97
2022-09-21T05:24:43.371Z,6.60
2022-09-21T05:29:47.689Z,4.32
2022-09-21T05:34:58.392Z,4.80
2022-09-21T05:40:02.858Z,6.38
2022-09-21T05:45:09.189Z,6.43
2022-09-21T05:50:25.627Z,12.38
2022-09-21T06:00:42.459Z,5.88
2022-09-21T06:05:47.650Z,5.68
2022-09-21T06:10:51.767Z,7.00
2022-09-21T06:15:55.541Z,5.63
2022-09-21T06:21:00.725Z,4.82
2022-09-21T06:26:04.717Z,4.85
2022-09-21T06:31:08.575Z,3.80
2022-09-21T06:36:13.789Z,2.83
2022-09-21T06:41:21.257Z,3.35
2022-09-21T06:46:25.307Z,3.40
2022-09-21T06:51:30.559Z,2.83
2022-09-21T06:56:34.364Z,4.83
2022-09-21T07:01:38.256Z,3.40
2022-09-21T07:06:43.514Z,3.67
2022-09-21T07:11:47.472Z,2.75
2022-09-21T07:16:51.369Z,3.17
2022-09-21T07:21:56.683Z,2.10
2022-09-21T07:27:00.543Z,1.70
2022-09-21T07:32:05.523Z,2.10
2022-09-21T07:37:10.861Z,1.80
2022-09-21T07:42:14.642Z,1.27
2022-09-21T07:47:18.423Z,1.50
2022-09-21T07:52:23.625Z,2.10
2022-09-21T07:57:44.727Z,1.77
2022-09-21T08:02:48.886Z,2.42
2022-09-21T08:07:56.736Z,2.72
2022-09-21T08:13:00.570Z,2.22
2022-09-21T08:18:07.306Z,2.30
2022-09-21T08:23:12.718Z,1.38
2022-09-21T08:28:16.561Z,2.17
2022-09-21T08:33:20.354Z,2.08
2022-09-21T08:38:25.775Z,2.20
2022-09-21T08:43:34.630Z,1.80
2022-09-21T08:48:41.963Z,2.20
2022-09-21T08:53:48.306Z,1.48
2022-09-21T08:58:52.074Z,1.95
2022-09-21T09:04:06.059Z,2.00
2022-09-21T09:09:24.926Z,1.88
2022-09-21T09:14:51.023Z,1.80
2022-09-21T09:19:59.775Z,1.67
2022-09-21T09:25:07.719Z,1.80
2022-09-21T09:30:18.003Z,2.22
2022-09-21T09:35:27.523Z,2.30
2022-09-21T09:40:56.326Z,2.10
2022-09-21T09:46:05.521Z,2.97
2022-09-21T09:51:12.370Z,2.10
2022-09-21T09:56:19.867Z,2.10
2022-09-21T10:01:42.483Z,2.72
2022-09-21T10:06:47.226Z,2.83
2022-09-21T10:11:53.089Z,1.83
2022-09-21T10:16:58.163Z,1.60
2022-09-21T10:22:03.166Z,1.23
2022-09-21T10:27:13.594Z,1.50
2022-09-21T10:32:23.250Z,1.10
2022-09-21T10:37:28.819Z,2.40
2022-09-21T10:42:38.338Z,1.50
2022-09-21T10:47:44.508Z,1.25
2022-09-21T10:52:48.466Z,1.40
2022-09-21T10:57:54.142Z,1.65
2022-09-21T11:02:58.479Z,1.05
2022-09-21T11:08:06.653Z,1.20
2022-09-21T11:13:22.255Z,1.42
2022-09-21T11:18:37.225Z,1.13
2022-09-21T11:23:48.395Z,0.98
2022-09-21T11:29:00.119Z,1.25
2022-09-21T11:34:15.769Z,1.00
2022-09-21T11:39:29.629Z,1.30
2022-09-21T11:44:49.347Z,1.15
2022-09-21T11:50:29.408Z,1.40
2022-09-21T11:55:45.950Z,1.10
2022-09-21T12:00:58.266Z,1.23
2022-09-21T12:06:12.982Z,1.40
2022-09-21T12:11:25.950Z,1.27
2022-09-21T12:16:37.715Z,1.30
2022-09-21T12:21:44.248Z,1.35
2022-09-21T12:26:51.619Z,1.80
2022-09-21T12:32:00.884Z,1.52
2022-09-21T12:37:09.717Z,1.50
2022-09-21T12:42:28.738Z,1.65
2022-09-21T12:47:45.109Z,2.22
2022-09-21T12:52:50.070Z,1.60
2022-09-21T12:58:14.707Z,1.60
2022-09-21T13:03:25.771Z,1.95
2022-09-21T13:08:31.438Z,2.00
2022-09-21T13:13:36.945Z,2.03
2022-09-21T13:18:42.460Z,2.22
2022-09-21T13:23:53.365Z,2.28
2022-09-21T13:29:28.635Z,1.35
2022-09-21T13:34:35.762Z,1.52
2022-09-21T13:39:44.726Z,1.63
2022-09-21T13:44:48.719Z,1.88
2022-09-21T13:49:59.716Z,2.10
2022-09-21T13:55:06.829Z,1.83
2022-09-21T14:00:30.076Z,1.83
2022-09-21T14:05:41.290Z,1.65
2022-09-21T14:10:53.040Z,1.67
2022-09-21T14:15:56.945Z,1.70
2022-09-21T14:21:18.746Z,1.90
2022-09-21T14:26:34.157Z,1.15
2022-09-21T14:31:39.189Z,0.90
2022-09-21T14:36:47.143Z,1.57
2022-09-21T14:41:53.655Z,1.75
2022-09-21T14:47:08.538Z,1.75
2022-09-21T14:52:29.781Z,1.65
2022-09-21T14:57:55.898Z,1.55
2022-09-21T15:03:11.395Z,2.15
2022-09-21T15:08:53.076Z,1.80
2022-09-21T15:14:18.540Z,1.25
2022-09-21T15:19:24.282Z,1.52
2022-09-21T15:24:31.807Z,1.88
2022-09-21T15:29:35.639Z,2.20
2022-09-21T15:34:39.475Z,1.70
2022-09-21T15:39:45.033Z,3.30
2022-09-21T15:44:50.706Z,1.80
2022-09-21T15:49:56.241Z,1.60
2022-09-21T15:55:02.943Z,1.70
2022-09-21T16:00:18.338Z,1.92
2022-09-21T16:05:22.999Z,1.57
2022-09-21T16:10:45.859Z,2.00
2022-09-21T16:16:02.420Z,2.00
2022-09-21T16:21:11.638Z,1.85
2022-09-21T16:26:23.238Z,4.90
2022-09-21T16:31:30.322Z,5.47
2022-09-21T16:36:41.940Z,2.42
2022-09-21T16:41:56.186Z,2.67
2022-09-21T16:47:01.296Z,2.63
2022-09-21T16:52:07.498Z,3.45
2022-09-21T16:57:14.440Z,2.95
2022-09-21T17:02:19.136Z,2.42
2022-09-21T17:07:23.030Z,2.10
2022-09-21T17:12:28.777Z,2.90
2022-09-21T17:17:33.198Z,2.67
2022-09-21T17:22:38.141Z,2.97
2022-09-21T17:27:46.001Z,3.80
2022-09-21T17:32:50.123Z,3.20
2022-09-21T17:37:53.877Z,2.78
2022-09-21T17:43:06.509Z,2.78
2022-09-21T17:48:19.554Z,2.70
2022-09-21T17:53:37.517Z,2.92
2022-09-21T17:58:46.958Z,2.85
2022-09-21T18:03:51.386Z,2.90
2022-09-21T18:08:56.017Z,3.42
2022-09-21T18:14:07.651Z,3.05
2022-09-21T18:19:32.327Z,3.08
2022-09-21T18:24:36.704Z,2.50
2022-09-21T18:29:42.644Z,2.75
2022-09-21T18:35:16.288Z,2.72
2022-09-21T18:40:26.628Z,2.70
2022-09-21T18:45:37.414Z,2.50
2022-09-21T18:50:49.208Z,3.30
2022-09-21T18:55:53.581Z,3.85
2022-09-21T19:01:00.431Z,3.08
2022-09-21T19:06:32.978Z,2.88
2022-09-21T19:11:43.047Z,3.25
2022-09-21T19:16:56.662Z,2.20
2022-09-21T19:22:05.296Z,2.42
2022-09-21T19:27:17.453Z,2.58
2022-09-21T19:32:30.609Z,2.85
2022-09-21T19:37:34.812Z,2.42
2022-09-21T19:42:50.750Z,2.33
2022-09-21T19:47:58.008Z,2.90
2022-09-21T19:53:16.199Z,2.15
2022-09-21T19:58:38.224Z,2.45
2022-09-21T20:03:46.215Z,2.58
2022-09-21T20:08:53.957Z,2.40
2022-09-21T20:14:17.912Z,2.25
2022-09-21T20:19:32.074Z,2.90
2022-09-21T20:24:41.564Z,2.38
2022-09-21T20:29:46.843Z,2.15
2022-09-21T20:34:52.079Z,2.47
2022-09-21T20:39:55.748Z,10.82
2022-09-21T20:44:59.725Z,2.80
2022-09-21T20:50:05.611Z,2.72
2022-09-21T20:55:10.948Z,2.80
2022-09-21T21:00:16.596Z,2.63
2022-09-21T21:05:22.297Z,2.60
2022-09-21T21:10:26.010Z,2.20
2022-09-21T21:15:29.734Z,2.33
2022-09-21T21:20:34.883Z,2.40
2022-09-21T21:25:38.727Z,2.30
2022-09-21T21:30:42.386Z,2.35
2022-09-21T21:35:48.078Z,2.45
2022-09-21T21:40:56.651Z,2.78
2022-09-21T21:46:02.678Z,2.05
2022-09-21T21:56:14.139Z,2.70
2022-09-21T22:01:21.833Z,2.70
2022-09-21T22:06:28.061Z,3.08
2022-09-21T22:11:32.103Z,2.85
2022-09-21T22:16:37.847Z,2.72
2022-09-21T22:21:48.209Z,3.10
2022-09-21T22:26:54.374Z,3.08
2022-09-21T22:31:58.363Z,3.00
2022-09-21T22:37:03.646Z,2.83
2022-09-21T22:42:07.582Z,3.10
2022-09-21T22:47:11.289Z,2.97
2022-09-21T22:52:16.552Z,2.95
2022-09-21T22:57:20.418Z,3.13
2022-09-21T23:02:24.555Z,3.03
2022-09-21T23:07:29.860Z,3.00
2022-09-21T23:12:33.768Z,3.10
2022-09-21T23:17:37.650Z,3.17
2022-09-21T23:22:42.916Z,3.13
2022-09-21T23:27:46.747Z,3.00
2022-09-21T23:32:52.780Z,2.97
2022-09-21T23:37:58.077Z,3.53
2022-09-21T23:43:01.851Z,3.65
2022-09-21T23:48:05.661Z,3.40
2022-09-21T23:53:10.917Z,3.50
2022-09-21T23:58:15.548Z,3.15
